sensor_id;sensor_type;location;lat;lon;timestamp;P1;durP1;ratioP1;P2;durP2;ratioP2
58665;SDS011;44436;52.872;6.520;2022-08-01T00:01:52;13.30;;;9.63;;
58665;SDS011;44436;52.872;6.520;2022-08-01T00:04:17;11.98;;;9.38;;
58665;SDS011;44436;52.872;6.520;2022-08-01T00:06:43;12.98;;;9.40;;
58665;SDS011;44436;52.872;6.520;2022-08-01T00:09:09;13.48;;;9.45;;
58665;SDS011;44436;52.872;6.520;2022-08-01T00:11:34;12.65;;;7.97;;
58665;SDS011;44436;52.872;6.520;2022-08-01T00:14:00;9.73;;;8.13;;
58665;SDS011;44436;52.872;6.520;2022-08-01T00:16:25;13.18;;;7.65;;
58665;SDS011;44436;52.872;6.520;2022-08-01T00:18:51;10.38;;;7.70;;
58665;SDS011;44436;52.872;6.520;2022-08-01T00:21:17;8.07;;;7.05;;
58665;SDS011;44436;52.872;6.520;2022-08-01T00:23:43;13.73;;;7.65;;
58665;SDS011;44436;52.872;6.520;2022-08-01T00:26:10;8.13;;;6.40;;
58665;SDS011;44436;52.872;6.520;2022-08-01T00:28:37;9.95;;;5.88;;
58665;SDS011;44436;52.872;6.520;2022-08-01T00:31:02;9.25;;;5.95;;
58665;SDS011;44436;52.872;6.520;2022-08-01T00:33:28;8.85;;;6.10;;
58665;SDS011;44436;52.872;6.520;2022-08-01T00:35:54;8.15;;;6.43;;
58665;SDS011;44436;52.872;6.520;2022-08-01T00:38:20;10.30;;;6.68;;
58665;SDS011;44436;52.872;6.520;2022-08-01T00:40:45;8.00;;;6.45;;
58665;SDS011;44436;52.872;6.520;2022-08-01T00:43:11;8.07;;;5.30;;
58665;SDS011;44436;52.872;6.520;2022-08-01T00:45:37;7.60;;;6.03;;
58665;SDS011;44436;52.872;6.520;2022-08-01T00:48:02;7.75;;;6.20;;
58665;SDS011;44436;52.872;6.520;2022-08-01T00:50:28;7.20;;;5.85;;
58665;SDS011;44436;52.872;6.520;2022-08-01T00:52:55;7.53;;;5.70;;
58665;SDS011;44436;52.872;6.520;2022-08-01T00:55:22;8.77;;;5.55;;
58665;SDS011;44436;52.872;6.520;2022-08-01T00:57:48;8.00;;;5.47;;
58665;SDS011;44436;52.872;6.520;2022-08-01T01:00:14;11.07;;;5.68;;
58665;SDS011;44436;52.872;6.520;2022-08-01T01:02:40;6.45;;;4.68;;
58665;SDS011;44436;52.872;6.520;2022-08-01T01:05:06;5.38;;;4.40;;
58665;SDS011;44436;52.872;6.520;2022-08-01T01:07:34;9.07;;;5.63;;
58665;SDS011;44436;52.872;6.520;2022-08-01T01:10:25;7.68;;;4.93;;
58665;SDS011;44436;52.872;6.520;2022-08-01T01:13:05;7.50;;;4.32;;
58665;SDS011;44436;52.872;6.520;2022-08-01T01:18:14;7.78;;;5.57;;
58665;SDS011;44436;52.872;6.520;2022-08-01T01:20:46;6.78;;;4.93;;
58665;SDS011;44436;52.872;6.520;2022-08-01T01:26:23;7.63;;;5.65;;
58665;SDS011;44436;52.872;6.520;2022-08-01T01:31:46;6.78;;;5.20;;
58665;SDS011;44436;52.872;6.520;2022-08-01T01:34:17;7.38;;;5.45;;
58665;SDS011;44436;52.872;6.520;2022-08-01T01:36:47;7.72;;;5.20;;
58665;SDS011;44436;52.872;6.520;2022-08-01T01:39:14;7.50;;;5.10;;
58665;SDS011;44436;52.872;6.520;2022-08-01T01:41:42;6.82;;;4.47;;
58665;SDS011;44436;52.872;6.520;2022-08-01T01:44:09;4.75;;;3.80;;
58665;SDS011;44436;52.872;6.520;2022-08-01T01:46:36;5.20;;;3.30;;
58665;SDS011;44436;52.872;6.520;2022-08-01T01:49:02;4.45;;;3.05;;
58665;SDS011;44436;52.872;6.520;2022-08-01T01:51:29;3.83;;;2.70;;
58665;SDS011;44436;52.872;6.520;2022-08-01T01:53:56;6.00;;;2.80;;
58665;SDS011;44436;52.872;6.520;2022-08-01T01:56:23;3.08;;;2.47;;
58665;SDS011;44436;52.872;6.520;2022-08-01T01:58:54;6.63;;;2.65;;
58665;SDS011;44436;52.872;6.520;2022-08-01T02:01:23;2.75;;;2.20;;
58665;SDS011;44436;52.872;6.520;2022-08-01T02:03:53;7.32;;;2.42;;
58665;SDS011;44436;52.872;6.520;2022-08-01T02:06:21;2.92;;;2.60;;
58665;SDS011;44436;52.872;6.520;2022-08-01T02:08:49;4.55;;;2.42;;
58665;SDS011;44436;52.872;6.520;2022-08-01T02:11:17;3.80;;;2.85;;
58665;SDS011;44436;52.872;6.520;2022-08-01T02:13:46;6.03;;;2.58;;
58665;SDS011;44436;52.872;6.520;2022-08-01T02:16:18;5.30;;;2.90;;
58665;SDS011;44436;52.872;6.520;2022-08-01T02:18:47;4.72;;;2.35;;
58665;SDS011;44436;52.872;6.520;2022-08-01T02:21:13;3.50;;;2.72;;
58665;SDS011;44436;52.872;6.520;2022-08-01T02:23:51;3.22;;;2.88;;
58665;SDS011;44436;52.872;6.520;2022-08-01T02:26:18;3.03;;;2.40;;
58665;SDS011;44436;52.872;6.520;2022-08-01T02:28:49;3.38;;;2.47;;
58665;SDS011;44436;52.872;6.520;2022-08-01T02:31:20;3.92;;;2.90;;
58665;SDS011;44436;52.872;6.520;2022-08-01T02:33:52;4.10;;;2.70;;
58665;SDS011;44436;52.872;6.520;2022-08-01T02:36:25;6.43;;;2.90;;
58665;SDS011;44436;52.872;6.520;2022-08-01T02:38:52;4.13;;;2.80;;
58665;SDS011;44436;52.872;6.520;2022-08-01T02:41:21;4.32;;;3.10;;
58665;SDS011;44436;52.872;6.520;2022-08-01T02:43:50;5.75;;;2.80;;
58665;SDS011;44436;52.872;6.520;2022-08-01T02:46:21;3.58;;;2.40;;
58665;SDS011;44436;52.872;6.520;2022-08-01T02:49:08;5.22;;;2.38;;
58665;SDS011;44436;52.872;6.520;2022-08-01T02:51:36;3.15;;;2.40;;
58665;SDS011;44436;52.872;6.520;2022-08-01T02:54:04;4.68;;;2.20;;
58665;SDS011;44436;52.872;6.520;2022-08-01T02:56:31;4.65;;;2.80;;
58665;SDS011;44436;52.872;6.520;2022-08-01T02:59:02;3.75;;;2.50;;
58665;SDS011;44436;52.872;6.520;2022-08-01T03:01:39;5.03;;;2.50;;
58665;SDS011;44436;52.872;6.520;2022-08-01T03:04:08;4.47;;;2.30;;
58665;SDS011;44436;52.872;6.520;2022-08-01T03:06:35;5.28;;;2.65;;
58665;SDS011;44436;52.872;6.520;2022-08-01T03:09:03;6.43;;;2.22;;
58665;SDS011;44436;52.872;6.520;2022-08-01T03:11:29;5.53;;;2.80;;
58665;SDS011;44436;52.872;6.520;2022-08-01T03:13:59;7.93;;;2.20;;
58665;SDS011;44436;52.872;6.520;2022-08-01T03:16:29;7.72;;;2.00;;
58665;SDS011;44436;52.872;6.520;2022-08-01T03:18:58;6.72;;;1.83;;
58665;SDS011;44436;52.872;6.520;2022-08-01T03:21:25;6.55;;;1.95;;
58665;SDS011;44436;52.872;6.520;2022-08-01T03:23:52;5.13;;;2.00;;
58665;SDS011;44436;52.872;6.520;2022-08-01T03:26:23;7.65;;;2.42;;
58665;SDS011;44436;52.872;6.520;2022-08-01T03:28:52;7.28;;;2.05;;
58665;SDS011;44436;52.872;6.520;2022-08-01T03:31:22;7.97;;;2.55;;
58665;SDS011;44436;52.872;6.520;2022-08-01T03:33:50;5.50;;;2.00;;
58665;SDS011;44436;52.872;6.520;2022-08-01T03:36:15;8.43;;;1.80;;
58665;SDS011;44436;52.872;6.520;2022-08-01T03:38:45;9.30;;;2.10;;
58665;SDS011;44436;52.872;6.520;2022-08-01T03:41:20;6.68;;;1.80;;
58665;SDS011;44436;52.872;6.520;2022-08-01T03:43:51;13.75;;;2.85;;
58665;SDS011;44436;52.872;6.520;2022-08-01T03:46:22;9.05;;;2.22;;
58665;SDS011;44436;52.872;6.520;2022-08-01T03:48:52;8.07;;;2.55;;
58665;SDS011;44436;52.872;6.520;2022-08-01T03:51:23;6.22;;;2.10;;
58665;SDS011;44436;52.872;6.520;2022-08-01T03:53:50;7.93;;;2.38;;
58665;SDS011;44436;52.872;6.520;2022-08-01T03:56:19;6.55;;;1.80;;
58665;SDS011;44436;52.872;6.520;2022-08-01T03:58:47;11.05;;;2.13;;
58665;SDS011;44436;52.872;6.520;2022-08-01T04:01:15;9.55;;;1.92;;
58665;SDS011;44436;52.872;6.520;2022-08-01T04:03:42;4.32;;;1.30;;
58665;SDS011;44436;52.872;6.520;2022-08-01T04:06:09;10.82;;;2.33;;
58665;SDS011;44436;52.872;6.520;2022-08-01T04:08:35;7.32;;;2.00;;
58665;SDS011;44436;52.872;6.520;2022-08-01T04:11:02;9.20;;;2.45;;
58665;SDS011;44436;52.872;6.520;2022-08-01T04:13:28;10.43;;;2.53;;
58665;SDS011;44436;52.872;6.520;2022-08-01T04:15:54;10.93;;;2.42;;
58665;SDS011;44436;52.872;6.520;2022-08-01T04:18:20;8.20;;;2.25;;
58665;SDS011;44436;52.872;6.520;2022-08-01T04:20:46;6.43;;;2.13;;
58665;SDS011;44436;52.872;6.520;2022-08-01T04:23:12;9.23;;;2.53;;
58665;SDS011;44436;52.872;6.520;2022-08-01T04:25:41;10.63;;;2.30;;
58665;SDS011;44436;52.872;6.520;2022-08-01T04:28:10;12.25;;;2.60;;
58665;SDS011;44436;52.872;6.520;2022-08-01T04:30:41;7.90;;;2.15;;
58665;SDS011;44436;52.872;6.520;2022-08-01T04:33:11;6.72;;;2.58;;
58665;SDS011;44436;52.872;6.520;2022-08-01T04:35:41;14.50;;;3.17;;
58665;SDS011;44436;52.872;6.520;2022-08-01T04:38:10;12.73;;;2.80;;
58665;SDS011;44436;52.872;6.520;2022-08-01T04:40:40;10.82;;;2.92;;
58665;SDS011;44436;52.872;6.520;2022-08-01T04:43:06;13.82;;;3.28;;
58665;SDS011;44436;52.872;6.520;2022-08-01T04:45:32;12.00;;;2.70;;
58665;SDS011;44436;52.872;6.520;2022-08-01T04:47:59;11.77;;;2.92;;
58665;SDS011;44436;52.872;6.520;2022-08-01T04:50:25;14.75;;;3.00;;
58665;SDS011;44436;52.872;6.520;2022-08-01T04:52:51;9.52;;;3.00;;
58665;SDS011;44436;52.872;6.520;2022-08-01T04:55:17;9.90;;;2.83;;
58665;SDS011;44436;52.872;6.520;2022-08-01T04:57:44;10.55;;;3.20;;
58665;SDS011;44436;52.872;6.520;2022-08-01T05:00:11;17.33;;;2.92;;
58665;SDS011;44436;52.872;6.520;2022-08-01T05:02:38;18.98;;;3.40;;
58665;SDS011;44436;52.872;6.520;2022-08-01T05:05:03;15.95;;;3.80;;
58665;SDS011;44436;52.872;6.520;2022-08-01T05:07:31;24.05;;;3.55;;
58665;SDS011;44436;52.872;6.520;2022-08-01T05:09:58;12.30;;;3.10;;
58665;SDS011;44436;52.872;6.520;2022-08-01T05:12:24;13.40;;;2.90;;
58665;SDS011;44436;52.872;6.520;2022-08-01T05:14:49;13.27;;;3.67;;
58665;SDS011;44436;52.872;6.520;2022-08-01T05:17:16;9.07;;;2.95;;
58665;SDS011;44436;52.872;6.520;2022-08-01T05:19:41;9.40;;;3.45;;
58665;SDS011;44436;52.872;6.520;2022-08-01T05:22:08;9.45;;;2.95;;
58665;SDS011;44436;52.872;6.520;2022-08-01T05:24:35;12.18;;;3.45;;
58665;SDS011;44436;52.872;6.520;2022-08-01T05:27:02;12.18;;;3.10;;
58665;SDS011;44436;52.872;6.520;2022-08-01T05:29:28;13.35;;;3.33;;
58665;SDS011;44436;52.872;6.520;2022-08-01T05:31:54;11.65;;;3.15;;
58665;SDS011;44436;52.872;6.520;2022-08-01T05:34:21;10.63;;;2.78;;
58665;SDS011;44436;52.872;6.520;2022-08-01T05:36:47;18.75;;;3.63;;
58665;SDS011;44436;52.872;6.520;2022-08-01T05:39:13;12.20;;;2.97;;
58665;SDS011;44436;52.872;6.520;2022-08-01T05:41:39;15.60;;;2.80;;
58665;SDS011;44436;52.872;6.520;2022-08-01T05:44:05;15.20;;;3.20;;
58665;SDS011;44436;52.872;6.520;2022-08-01T05:46:31;14.48;;;2.80;;
58665;SDS011;44436;52.872;6.520;2022-08-01T05:48:57;19.65;;;2.90;;
58665;SDS011;44436;52.872;6.520;2022-08-01T05:51:23;12.15;;;2.95;;
58665;SDS011;44436;52.872;6.520;2022-08-01T05:53:49;12.73;;;3.45;;
58665;SDS011;44436;52.872;6.520;2022-08-01T05:56:15;15.50;;;3.70;;
58665;SDS011;44436;52.872;6.520;2022-08-01T05:58:41;12.73;;;3.13;;
58665;SDS011;44436;52.872;6.520;2022-08-01T06:01:06;13.35;;;3.70;;
58665;SDS011;44436;52.872;6.520;2022-08-01T06:03:32;10.10;;;2.65;;
58665;SDS011;44436;52.872;6.520;2022-08-01T06:05:58;11.45;;;2.90;;
58665;SDS011;44436;52.872;6.520;2022-08-01T06:08:25;14.10;;;3.45;;
58665;SDS011;44436;52.872;6.520;2022-08-01T06:10:51;15.98;;;3.47;;
58665;SDS011;44436;52.872;6.520;2022-08-01T06:13:16;20.83;;;3.30;;
58665;SDS011;44436;52.872;6.520;2022-08-01T06:15:43;18.50;;;2.75;;
58665;SDS011;44436;52.872;6.520;2022-08-01T06:18:09;22.40;;;3.15;;
58665;SDS011;44436;52.872;6.520;2022-08-01T06:20:35;13.57;;;2.85;;
58665;SDS011;44436;52.872;6.520;2022-08-01T06:23:00;19.27;;;2.90;;
58665;SDS011;44436;52.872;6.520;2022-08-01T06:25:26;19.38;;;3.70;;
58665;SDS011;44436;52.872;6.520;2022-08-01T06:27:52;15.43;;;3.00;;
58665;SDS011;44436;52.872;6.520;2022-08-01T06:30:18;21.88;;;3.78;;
58665;SDS011;44436;52.872;6.520;2022-08-01T06:32:44;19.30;;;3.00;;
58665;SDS011;44436;52.872;6.520;2022-08-01T06:35:09;18.02;;;3.78;;
58665;SDS011;44436;52.872;6.520;2022-08-01T06:37:35;16.73;;;3.15;;
58665;SDS011;44436;52.872;6.520;2022-08-01T06:40:03;24.90;;;3.95;;
58665;SDS011;44436;52.872;6.520;2022-08-01T06:42:30;21.70;;;3.20;;
58665;SDS011;44436;52.872;6.520;2022-08-01T06:45:00;18.90;;;3.95;;
58665;SDS011;44436;52.872;6.520;2022-08-01T06:47:28;18.63;;;3.38;;
58665;SDS011;44436;52.872;6.520;2022-08-01T06:49:54;22.80;;;3.72;;
58665;SDS011;44436;52.872;6.520;2022-08-01T06:52:19;21.70;;;4.05;;
58665;SDS011;44436;52.872;6.520;2022-08-01T06:54:45;21.55;;;3.47;;
58665;SDS011;44436;52.872;6.520;2022-08-01T06:57:11;19.08;;;3.47;;
58665;SDS011;44436;52.872;6.520;2022-08-01T06:59:37;17.10;;;2.38;;
58665;SDS011;44436;52.872;6.520;2022-08-01T07:02:03;22.73;;;3.53;;
58665;SDS011;44436;52.872;6.520;2022-08-01T07:04:28;23.13;;;3.00;;
58665;SDS011;44436;52.872;6.520;2022-08-01T07:06:54;18.77;;;3.35;;
58665;SDS011;44436;52.872;6.520;2022-08-01T07:09:20;22.25;;;3.55;;
58665;SDS011;44436;52.872;6.520;2022-08-01T07:11:46;18.92;;;3.40;;
58665;SDS011;44436;52.872;6.520;2022-08-01T07:14:11;20.08;;;3.55;;
58665;SDS011;44436;52.872;6.520;2022-08-01T07:16:37;18.38;;;3.42;;
58665;SDS011;44436;52.872;6.520;2022-08-01T07:19:02;21.23;;;3.42;;
58665;SDS011;44436;52.872;6.520;2022-08-01T07:21:28;22.35;;;3.80;;
58665;SDS011;44436;52.872;6.520;2022-08-01T07:23:53;22.23;;;3.70;;
58665;SDS011;44436;52.872;6.520;2022-08-01T07:26:19;23.50;;;3.50;;
58665;SDS011;44436;52.872;6.520;2022-08-01T07:28:45;25.45;;;4.35;;
58665;SDS011;44436;52.872;6.520;2022-08-01T07:31:10;17.80;;;3.03;;
58665;SDS011;44436;52.872;6.520;2022-08-01T07:33:36;23.05;;;4.30;;
58665;SDS011;44436;52.872;6.520;2022-08-01T07:36:02;17.90;;;3.10;;
58665;SDS011;44436;52.872;6.520;2022-08-01T07:38:28;13.82;;;3.35;;
58665;SDS011;44436;52.872;6.520;2022-08-01T07:40:54;14.40;;;3.35;;
58665;SDS011;44436;52.872;6.520;2022-08-01T07:43:20;17.08;;;3.28;;
58665;SDS011;44436;52.872;6.520;2022-08-01T07:45:45;21.67;;;3.63;;
58665;SDS011;44436;52.872;6.520;2022-08-01T07:48:11;20.67;;;3.33;;
58665;SDS011;44436;52.872;6.520;2022-08-01T07:50:37;23.55;;;3.45;;
58665;SDS011;44436;52.872;6.520;2022-08-01T07:53:03;23.75;;;3.60;;
58665;SDS011;44436;52.872;6.520;2022-08-01T07:55:29;21.83;;;3.13;;
58665;SDS011;44436;52.872;6.520;2022-08-01T07:57:55;17.08;;;3.20;;
58665;SDS011;44436;52.872;6.520;2022-08-01T08:00:20;22.58;;;4.03;;
58665;SDS011;44436;52.872;6.520;2022-08-01T08:02:46;23.67;;;3.33;;
58665;SDS011;44436;52.872;6.520;2022-08-01T08:05:12;16.42;;;3.17;;
58665;SDS011;44436;52.872;6.520;2022-08-01T08:07:37;16.08;;;3.47;;
58665;SDS011;44436;52.872;6.520;2022-08-01T08:10:04;17.08;;;3.55;;
58665;SDS011;44436;52.872;6.520;2022-08-01T08:12:30;26.88;;;3.25;;
58665;SDS011;44436;52.872;6.520;2022-08-01T08:14:57;15.18;;;3.80;;
58665;SDS011;44436;52.872;6.520;2022-08-01T08:17:26;22.40;;;3.17;;
58665;SDS011;44436;52.872;6.520;2022-08-01T08:19:52;21.98;;;3.47;;
58665;SDS011;44436;52.872;6.520;2022-08-01T08:22:18;15.35;;;2.85;;
58665;SDS011;44436;52.872;6.520;2022-08-01T08:24:44;12.88;;;2.55;;
58665;SDS011;44436;52.872;6.520;2022-08-01T08:27:10;24.80;;;3.45;;
58665;SDS011;44436;52.872;6.520;2022-08-01T08:29:36;14.63;;;2.20;;
58665;SDS011;44436;52.872;6.520;2022-08-01T08:32:02;21.92;;;3.30;;
58665;SDS011;44436;52.872;6.520;2022-08-01T08:34:28;14.13;;;2.53;;
58665;SDS011;44436;52.872;6.520;2022-08-01T08:36:55;20.88;;;2.75;;
58665;SDS011;44436;52.872;6.520;2022-08-01T08:39:21;14.32;;;2.90;;
58665;SDS011;44436;52.872;6.520;2022-08-01T08:41:47;16.35;;;2.97;;
58665;SDS011;44436;52.872;6.520;2022-08-01T08:44:13;12.85;;;2.53;;
58665;SDS011;44436;52.872;6.520;2022-08-01T08:46:43;13.98;;;2.63;;
58665;SDS011;44436;52.872;6.520;2022-08-01T08:49:12;19.40;;;2.50;;
58665;SDS011;44436;52.872;6.520;2022-08-01T08:51:41;15.65;;;2.67;;
58665;SDS011;44436;52.872;6.520;2022-08-01T08:54:10;13.73;;;2.72;;
58665;SDS011;44436;52.872;6.520;2022-08-01T08:56:38;15.65;;;2.75;;
58665;SDS011;44436;52.872;6.520;2022-08-01T08:59:04;9.95;;;1.98;;
58665;SDS011;44436;52.872;6.520;2022-08-01T09:01:30;13.02;;;2.28;;
58665;SDS011;44436;52.872;6.520;2022-08-01T09:03:57;11.85;;;2.50;;
58665;SDS011;44436;52.872;6.520;2022-08-01T09:06:23;14.13;;;1.92;;
58665;SDS011;44436;52.872;6.520;2022-08-01T09:08:49;11.18;;;2.40;;
58665;SDS011;44436;52.872;6.520;2022-08-01T09:11:15;12.23;;;2.22;;
58665;SDS011;44436;52.872;6.520;2022-08-01T09:13:41;11.88;;;1.80;;
58665;SDS011;44436;52.872;6.520;2022-08-01T09:16:09;9.80;;;1.90;;
58665;SDS011;44436;52.872;6.520;2022-08-01T09:18:42;13.00;;;2.17;;
58665;SDS011;44436;52.872;6.520;2022-08-01T09:23:46;12.90;;;1.83;;
58665;SDS011;44436;52.872;6.520;2022-08-01T09:26:13;11.57;;;2.20;;
58665;SDS011;44436;52.872;6.520;2022-08-01T09:28:57;12.40;;;2.22;;
58665;SDS011;44436;52.872;6.520;2022-08-01T09:31:25;12.60;;;2.47;;
58665;SDS011;44436;52.872;6.520;2022-08-01T09:33:53;9.50;;;2.08;;
58665;SDS011;44436;52.872;6.520;2022-08-01T09:36:25;11.75;;;1.65;;
58665;SDS011;44436;52.872;6.520;2022-08-01T09:39:11;12.57;;;1.70;;
58665;SDS011;44436;52.872;6.520;2022-08-01T09:41:39;14.00;;;1.90;;
58665;SDS011;44436;52.872;6.520;2022-08-01T09:44:05;12.45;;;2.40;;
58665;SDS011;44436;52.872;6.520;2022-08-01T09:46:31;15.70;;;2.70;;
58665;SDS011;44436;52.872;6.520;2022-08-01T09:51:27;15.55;;;2.17;;
58665;SDS011;44436;52.872;6.520;2022-08-01T09:54:00;8.02;;;1.77;;
58665;SDS011;44436;52.872;6.520;2022-08-01T09:56:35;12.15;;;1.67;;
58665;SDS011;44436;52.872;6.520;2022-08-01T09:59:07;10.10;;;2.03;;
58665;SDS011;44436;52.872;6.520;2022-08-01T10:04:14;11.15;;;1.83;;
58665;SDS011;44436;52.872;6.520;2022-08-01T10:06:43;10.82;;;1.85;;
58665;SDS011;44436;52.872;6.520;2022-08-01T10:09:10;10.85;;;1.90;;
58665;SDS011;44436;52.872;6.520;2022-08-01T10:11:37;14.60;;;2.15;;
58665;SDS011;44436;52.872;6.520;2022-08-01T10:14:05;7.68;;;1.73;;
58665;SDS011;44436;52.872;6.520;2022-08-01T10:16:33;13.75;;;2.20;;
58665;SDS011;44436;52.872;6.520;2022-08-01T10:19:00;8.90;;;1.90;;
58665;SDS011;44436;52.872;6.520;2022-08-01T10:21:27;6.82;;;1.38;;
58665;SDS011;44436;52.872;6.520;2022-08-01T10:23:54;8.27;;;1.85;;
58665;SDS011;44436;52.872;6.520;2022-08-01T10:26:21;11.85;;;1.77;;
58665;SDS011;44436;52.872;6.520;2022-08-01T10:28:50;9.20;;;1.45;;
58665;SDS011;44436;52.872;6.520;2022-08-01T10:31:16;7.43;;;1.55;;
58665;SDS011;44436;52.872;6.520;2022-08-01T10:33:44;10.00;;;2.13;;
58665;SDS011;44436;52.872;6.520;2022-08-01T10:36:10;12.90;;;1.77;;
58665;SDS011;44436;52.872;6.520;2022-08-01T10:38:36;7.90;;;1.52;;
58665;SDS011;44436;52.872;6.520;2022-08-01T10:41:03;7.65;;;1.85;;
58665;SDS011;44436;52.872;6.520;2022-08-01T10:43:29;8.35;;;1.75;;
58665;SDS011;44436;52.872;6.520;2022-08-01T10:45:55;9.13;;;2.13;;
58665;SDS011;44436;52.872;6.520;2022-08-01T10:48:27;8.35;;;1.38;;
58665;SDS011;44436;52.872;6.520;2022-08-01T10:50:55;12.13;;;2.33;;
58665;SDS011;44436;52.872;6.520;2022-08-01T10:53:28;8.27;;;1.52;;
58665;SDS011;44436;52.872;6.520;2022-08-01T10:55:58;5.50;;;1.55;;
58665;SDS011;44436;52.872;6.520;2022-08-01T11:08:57;7.95;;;1.45;;
58665;SDS011;44436;52.872;6.520;2022-08-01T11:11:25;9.65;;;1.10;;
58665;SDS011;44436;52.872;6.520;2022-08-01T11:16:38;9.95;;;1.52;;
58665;SDS011;44436;52.872;6.520;2022-08-01T11:19:06;10.07;;;1.45;;
58665;SDS011;44436;52.872;6.520;2022-08-01T11:27:20;9.38;;;2.00;;
58665;SDS011;44436;52.872;6.520;2022-08-01T11:32:47;8.55;;;1.45;;
58665;SDS011;44436;52.872;6.520;2022-08-01T11:35:14;6.93;;;1.17;;
58665;SDS011;44436;52.872;6.520;2022-08-01T11:37:41;4.80;;;1.33;;
58665;SDS011;44436;52.872;6.520;2022-08-01T11:42:45;6.00;;;1.27;;
58665;SDS011;44436;52.872;6.520;2022-08-01T11:45:11;7.53;;;1.38;;
58665;SDS011;44436;52.872;6.520;2022-08-01T11:47:42;8.02;;;1.58;;
58665;SDS011;44436;52.872;6.520;2022-08-01T11:53:01;9.05;;;1.63;;
58665;SDS011;44436;52.872;6.520;2022-08-01T11:55:30;10.10;;;1.88;;
58665;SDS011;44436;52.872;6.520;2022-08-01T11:58:04;10.80;;;1.70;;
58665;SDS011;44436;52.872;6.520;2022-08-01T12:00:31;9.73;;;2.55;;
58665;SDS011;44436;52.872;6.520;2022-08-01T12:03:00;7.70;;;1.38;;
58665;SDS011;44436;52.872;6.520;2022-08-01T12:05:27;7.22;;;1.23;;
58665;SDS011;44436;52.872;6.520;2022-08-01T12:07:55;8.18;;;1.63;;
58665;SDS011;44436;52.872;6.520;2022-08-01T12:10:22;9.40;;;1.40;;
58665;SDS011;44436;52.872;6.520;2022-08-01T12:12:51;6.70;;;1.67;;
58665;SDS011;44436;52.872;6.520;2022-08-01T12:15:19;8.80;;;1.60;;
58665;SDS011;44436;52.872;6.520;2022-08-01T12:17:48;6.55;;;1.30;;
58665;SDS011;44436;52.872;6.520;2022-08-01T12:20:22;9.57;;;1.60;;
58665;SDS011;44436;52.872;6.520;2022-08-01T12:22:52;7.97;;;1.50;;
58665;SDS011;44436;52.872;6.520;2022-08-01T12:25:19;7.97;;;1.38;;
58665;SDS011;44436;52.872;6.520;2022-08-01T12:27:45;11.10;;;1.55;;
58665;SDS011;44436;52.872;6.520;2022-08-01T12:30:14;7.78;;;1.80;;
58665;SDS011;44436;52.872;6.520;2022-08-01T12:32:47;7.25;;;1.48;;
58665;SDS011;44436;52.872;6.520;2022-08-01T12:35:20;4.43;;;1.50;;
58665;SDS011;44436;52.872;6.520;2022-08-01T12:37:58;6.97;;;1.40;;
58665;SDS011;44436;52.872;6.520;2022-08-01T12:40:33;9.82;;;1.70;;
58665;SDS011;44436;52.872;6.520;2022-08-01T12:43:01;6.53;;;1.23;;
58665;SDS011;44436;52.872;6.520;2022-08-01T12:48:00;7.85;;;1.55;;
58665;SDS011;44436;52.872;6.520;2022-08-01T12:50:28;8.73;;;1.35;;
58665;SDS011;44436;52.872;6.520;2022-08-01T12:52:55;9.93;;;1.50;;
58665;SDS011;44436;52.872;6.520;2022-08-01T12:55:22;7.10;;;1.30;;
58665;SDS011;44436;52.872;6.520;2022-08-01T12:58:03;6.82;;;1.20;;
58665;SDS011;44436;52.872;6.520;2022-08-01T13:00:31;8.95;;;1.50;;
58665;SDS011;44436;52.872;6.520;2022-08-01T13:05:50;9.82;;;1.30;;
58665;SDS011;44436;52.872;6.520;2022-08-01T13:10:47;6.35;;;1.17;;
58665;SDS011;44436;52.872;6.520;2022-08-01T13:13:17;5.28;;;1.13;;
58665;SDS011;44436;52.872;6.520;2022-08-01T13:15:45;6.32;;;1.63;;
58665;SDS011;44436;52.872;6.520;2022-08-01T13:18:27;5.47;;;1.42;;
58665;SDS011;44436;52.872;6.520;2022-08-01T13:21:16;7.43;;;1.20;;
58665;SDS011;44436;52.872;6.520;2022-08-01T13:23:41;5.93;;;1.33;;
58665;SDS011;44436;52.872;6.520;2022-08-01T13:26:46;8.32;;;1.23;;
58665;SDS011;44436;52.872;6.520;2022-08-01T13:29:31;7.47;;;1.45;;
58665;SDS011;44436;52.872;6.520;2022-08-01T13:31:59;6.43;;;1.20;;
58665;SDS011;44436;52.872;6.520;2022-08-01T13:34:36;5.13;;;1.20;;
58665;SDS011;44436;52.872;6.520;2022-08-01T13:37:02;5.97;;;1.30;;
58665;SDS011;44436;52.872;6.520;2022-08-01T13:39:28;3.20;;;1.08;;
58665;SDS011;44436;52.872;6.520;2022-08-01T13:42:11;6.05;;;1.50;;
58665;SDS011;44436;52.872;6.520;2022-08-01T13:44:37;7.47;;;1.63;;
58665;SDS011;44436;52.872;6.520;2022-08-01T13:47:03;6.63;;;1.50;;
58665;SDS011;44436;52.872;6.520;2022-08-01T13:49:30;5.80;;;1.30;;
58665;SDS011;44436;52.872;6.520;2022-08-01T13:51:55;4.43;;;1.13;;
58665;SDS011;44436;52.872;6.520;2022-08-01T13:54:21;7.72;;;1.20;;
58665;SDS011;44436;52.872;6.520;2022-08-01T13:56:48;6.55;;;1.50;;
58665;SDS011;44436;52.872;6.520;2022-08-01T13:59:14;6.95;;;1.27;;
58665;SDS011;44436;52.872;6.520;2022-08-01T14:01:40;5.85;;;1.15;;
58665;SDS011;44436;52.872;6.520;2022-08-01T14:04:05;5.70;;;1.75;;
58665;SDS011;44436;52.872;6.520;2022-08-01T14:06:31;5.97;;;1.23;;
58665;SDS011;44436;52.872;6.520;2022-08-01T14:08:58;5.30;;;1.40;;
58665;SDS011;44436;52.872;6.520;2022-08-01T14:11:23;4.32;;;1.30;;
58665;SDS011;44436;52.872;6.520;2022-08-01T14:13:49;6.50;;;1.38;;
58665;SDS011;44436;52.872;6.520;2022-08-01T14:16:16;7.22;;;1.10;;
58665;SDS011;44436;52.872;6.520;2022-08-01T14:18:42;4.93;;;1.52;;
58665;SDS011;44436;52.872;6.520;2022-08-01T14:21:07;4.38;;;1.08;;
58665;SDS011;44436;52.872;6.520;2022-08-01T14:23:33;6.80;;;1.00;;
58665;SDS011;44436;52.872;6.520;2022-08-01T14:25:59;5.55;;;1.27;;
58665;SDS011;44436;52.872;6.520;2022-08-01T14:28:24;6.05;;;1.13;;
58665;SDS011;44436;52.872;6.520;2022-08-01T14:30:52;4.60;;;1.20;;
58665;SDS011;44436;52.872;6.520;2022-08-01T14:33:20;7.03;;;1.45;;
58665;SDS011;44436;52.872;6.520;2022-08-01T14:35:46;6.18;;;0.85;;
58665;SDS011;44436;52.872;6.520;2022-08-01T14:38:12;8.23;;;1.25;;
58665;SDS011;44436;52.872;6.520;2022-08-01T14:40:38;7.28;;;1.30;;
58665;SDS011;44436;52.872;6.520;2022-08-01T14:43:03;8.40;;;1.30;;
58665;SDS011;44436;52.872;6.520;2022-08-01T14:45:29;8.25;;;1.55;;
58665;SDS011;44436;52.872;6.520;2022-08-01T14:47:55;8.10;;;1.20;;
58665;SDS011;44436;52.872;6.520;2022-08-01T14:50:20;8.43;;;1.30;;
58665;SDS011;44436;52.872;6.520;2022-08-01T14:52:46;8.55;;;1.50;;
58665;SDS011;44436;52.872;6.520;2022-08-01T14:55:12;6.05;;;1.33;;
58665;SDS011;44436;52.872;6.520;2022-08-01T14:57:38;9.80;;;1.05;;
58665;SDS011;44436;52.872;6.520;2022-08-01T15:00:05;5.55;;;1.10;;
58665;SDS011;44436;52.872;6.520;2022-08-01T15:02:35;7.28;;;1.40;;
58665;SDS011;44436;52.872;6.520;2022-08-01T15:05:01;6.18;;;1.38;;
58665;SDS011;44436;52.872;6.520;2022-08-01T15:07:27;4.38;;;1.08;;
58665;SDS011;44436;52.872;6.520;2022-08-01T15:09:52;5.20;;;1.40;;
58665;SDS011;44436;52.872;6.520;2022-08-01T15:12:18;5.45;;;1.10;;
58665;SDS011;44436;52.872;6.520;2022-08-01T15:14:44;5.00;;;1.27;;
58665;SDS011;44436;52.872;6.520;2022-08-01T15:17:13;8.40;;;1.65;;
58665;SDS011;44436;52.872;6.520;2022-08-01T15:19:39;7.50;;;1.95;;
58665;SDS011;44436;52.872;6.520;2022-08-01T15:22:05;8.13;;;1.60;;
58665;SDS011;44436;52.872;6.520;2022-08-01T15:24:30;5.82;;;1.48;;
58665;SDS011;44436;52.872;6.520;2022-08-01T15:26:56;7.95;;;1.42;;
58665;SDS011;44436;52.872;6.520;2022-08-01T15:29:22;5.72;;;1.48;;
58665;SDS011;44436;52.872;6.520;2022-08-01T15:31:48;5.78;;;0.82;;
58665;SDS011;44436;52.872;6.520;2022-08-01T15:34:14;11.65;;;1.33;;
58665;SDS011;44436;52.872;6.520;2022-08-01T15:36:40;5.07;;;1.25;;
58665;SDS011;44436;52.872;6.520;2022-08-01T15:39:07;4.15;;;1.10;;